sensor_id;sensor_type;location;lat;lon;timestamp;P1;durP1;ratioP1;P2;durP2;ratioP2
25023;SDS011;13033;50.936;5.334;2023-04-03T00:01:32;7.85;;;6.20;;
25023;SDS011;13033;50.936;5.334;2023-04-03T00:03:58;18.08;;;6.93;;
25023;SDS011;13033;50.936;5.334;2023-04-03T00:06:24;13.00;;;6.70;;
25023;SDS011;13033;50.936;5.334;2023-04-03T00:08:51;10.73;;;6.45;;
25023;SDS011;13033;50.936;5.334;2023-04-03T00:11:17;10.10;;;6.47;;
25023;SDS011;13033;50.936;5.334;2023-04-03T00:13:43;11.18;;;7.13;;
25023;SDS011;13033;50.936;5.334;2023-04-03T00:16:10;10.90;;;6.57;;
25023;SDS011;13033;50.936;5.334;2023-04-03T00:18:36;10.20;;;6.95;;
25023;SDS011;13033;50.936;5.334;2023-04-03T00:21:03;9.88;;;7.03;;
25023;SDS011;13033;50.936;5.334;2023-04-03T00:23:30;8.95;;;6.40;;
25023;SDS011;13033;50.936;5.334;2023-04-03T00:25:56;11.18;;;6.35;;
25023;SDS011;13033;50.936;5.334;2023-04-03T00:28:21;10.13;;;6.07;;
25023;SDS011;13033;50.936;5.334;2023-04-03T00:30:51;10.73;;;6.65;;
25023;SDS011;13033;50.936;5.334;2023-04-03T00:33:17;10.18;;;6.53;;
25023;SDS011;13033;50.936;5.334;2023-04-03T00:35:46;10.38;;;6.00;;
25023;SDS011;13033;50.936;5.334;2023-04-03T00:38:13;9.30;;;6.22;;
25023;SDS011;13033;50.936;5.334;2023-04-03T00:40:41;9.93;;;6.50;;
25023;SDS011;13033;50.936;5.334;2023-04-03T00:43:30;12.15;;;6.22;;
25023;SDS011;13033;50.936;5.334;2023-04-03T00:45:55;10.90;;;5.60;;
25023;SDS011;13033;50.936;5.334;2023-04-03T00:48:25;11.57;;;6.20;;
25023;SDS011;13033;50.936;5.334;2023-04-03T00:50:51;12.40;;;6.25;;
25023;SDS011;13033;50.936;5.334;2023-04-03T00:53:19;9.85;;;6.40;;
25023;SDS011;13033;50.936;5.334;2023-04-03T00:55:50;8.32;;;6.40;;
25023;SDS011;13033;50.936;5.334;2023-04-03T00:58:19;9.30;;;6.18;;
25023;SDS011;13033;50.936;5.334;2023-04-03T01:00:50;10.57;;;6.72;;
25023;SDS011;13033;50.936;5.334;2023-04-03T01:03:22;13.63;;;6.22;;
25023;SDS011;13033;50.936;5.334;2023-04-03T01:05:48;11.43;;;6.40;;
25023;SDS011;13033;50.936;5.334;2023-04-03T01:08:14;10.82;;;6.80;;
25023;SDS011;13033;50.936;5.334;2023-04-03T01:10:40;9.85;;;6.30;;
25023;SDS011;13033;50.936;5.334;2023-04-03T01:13:25;11.20;;;7.10;;
25023;SDS011;13033;50.936;5.334;2023-04-03T01:15:53;7.63;;;6.07;;
25023;SDS011;13033;50.936;5.334;2023-04-03T01:18:19;10.07;;;6.72;;
25023;SDS011;13033;50.936;5.334;2023-04-03T01:25:57;10.50;;;6.65;;
25023;SDS011;13033;50.936;5.334;2023-04-03T01:28:24;11.65;;;6.72;;
25023;SDS011;13033;50.936;5.334;2023-04-03T01:31:02;11.93;;;6.65;;
25023;SDS011;13033;50.936;5.334;2023-04-03T01:33:40;9.73;;;6.80;;
25023;SDS011;13033;50.936;5.334;2023-04-03T01:36:09;10.45;;;6.25;;
25023;SDS011;13033;50.936;5.334;2023-04-03T01:38:38;10.48;;;6.45;;
25023;SDS011;13033;50.936;5.334;2023-04-03T01:41:04;10.88;;;6.78;;
25023;SDS011;13033;50.936;5.334;2023-04-03T01:43:30;10.15;;;6.55;;
25023;SDS011;13033;50.936;5.334;2023-04-03T01:45:55;11.82;;;7.20;;
25023;SDS011;13033;50.936;5.334;2023-04-03T01:48:21;16.02;;;7.40;;
25023;SDS011;13033;50.936;5.334;2023-04-03T01:50:47;15.18;;;7.13;;
25023;SDS011;13033;50.936;5.334;2023-04-03T01:53:12;10.75;;;6.90;;
25023;SDS011;13033;50.936;5.334;2023-04-03T01:55:38;14.50;;;7.80;;
25023;SDS011;13033;50.936;5.334;2023-04-03T01:58:04;9.25;;;6.63;;
25023;SDS011;13033;50.936;5.334;2023-04-03T02:00:30;11.57;;;7.40;;
25023;SDS011;13033;50.936;5.334;2023-04-03T02:02:55;8.88;;;7.10;;
25023;SDS011;13033;50.936;5.334;2023-04-03T02:05:21;11.95;;;7.20;;
25023;SDS011;13033;50.936;5.334;2023-04-03T02:07:47;10.07;;;7.22;;
25023;SDS011;13033;50.936;5.334;2023-04-03T02:10:13;10.75;;;6.90;;
25023;SDS011;13033;50.936;5.334;2023-04-03T02:12:39;11.82;;;7.60;;
25023;SDS011;13033;50.936;5.334;2023-04-03T02:15:05;11.68;;;7.22;;
25023;SDS011;13033;50.936;5.334;2023-04-03T02:17:31;10.20;;;7.50;;
25023;SDS011;13033;50.936;5.334;2023-04-03T02:19:56;10.95;;;8.00;;
25023;SDS011;13033;50.936;5.334;2023-04-03T02:22:22;14.40;;;7.88;;
25023;SDS011;13033;50.936;5.334;2023-04-03T02:24:48;13.23;;;8.00;;
25023;SDS011;13033;50.936;5.334;2023-04-03T02:27:13;11.02;;;7.60;;
25023;SDS011;13033;50.936;5.334;2023-04-03T02:29:39;13.40;;;7.60;;
25023;SDS011;13033;50.936;5.334;2023-04-03T02:32:05;11.27;;;7.72;;
25023;SDS011;13033;50.936;5.334;2023-04-03T02:34:31;10.27;;;7.75;;
25023;SDS011;13033;50.936;5.334;2023-04-03T02:36:56;15.50;;;8.00;;
25023;SDS011;13033;50.936;5.334;2023-04-03T02:39:22;12.80;;;8.32;;
25023;SDS011;13033;50.936;5.334;2023-04-03T02:41:48;12.85;;;7.95;;
25023;SDS011;13033;50.936;5.334;2023-04-03T02:44:13;11.15;;;7.70;;
25023;SDS011;13033;50.936;5.334;2023-04-03T02:46:39;11.70;;;8.15;;
25023;SDS011;13033;50.936;5.334;2023-04-03T02:49:05;10.95;;;7.75;;
25023;SDS011;13033;50.936;5.334;2023-04-03T02:51:31;16.40;;;8.68;;
25023;SDS011;13033;50.936;5.334;2023-04-03T02:53:57;12.23;;;8.35;;
25023;SDS011;13033;50.936;5.334;2023-04-03T02:56:23;14.52;;;8.75;;
25023;SDS011;13033;50.936;5.334;2023-04-03T02:58:48;13.38;;;8.50;;
25023;SDS011;13033;50.936;5.334;2023-04-03T03:01:14;13.07;;;8.32;;
25023;SDS011;13033;50.936;5.334;2023-04-03T03:03:40;16.02;;;8.77;;
25023;SDS011;13033;50.936;5.334;2023-04-03T03:06:12;15.30;;;9.43;;
25023;SDS011;13033;50.936;5.334;2023-04-03T03:08:39;12.23;;;8.48;;
25023;SDS011;13033;50.936;5.334;2023-04-03T03:11:05;14.80;;;9.35;;
25023;SDS011;13033;50.936;5.334;2023-04-03T03:13:31;11.18;;;8.68;;
25023;SDS011;13033;50.936;5.334;2023-04-03T03:15:57;11.98;;;8.82;;
25023;SDS011;13033;50.936;5.334;2023-04-03T03:18:23;14.85;;;9.13;;
25023;SDS011;13033;50.936;5.334;2023-04-03T03:20:53;14.10;;;9.20;;
25023;SDS011;13033;50.936;5.334;2023-04-03T03:23:20;15.00;;;9.30;;
25023;SDS011;13033;50.936;5.334;2023-04-03T03:25:47;14.30;;;9.25;;
25023;SDS011;13033;50.936;5.334;2023-04-03T03:28:13;14.55;;;9.13;;
25023;SDS011;13033;50.936;5.334;2023-04-03T03:30:38;14.50;;;9.50;;
25023;SDS011;13033;50.936;5.334;2023-04-03T03:33:04;12.95;;;8.95;;
25023;SDS011;13033;50.936;5.334;2023-04-03T03:35:30;12.77;;;9.48;;
25023;SDS011;13033;50.936;5.334;2023-04-03T03:37:55;12.05;;;9.20;;
25023;SDS011;13033;50.936;5.334;2023-04-03T03:40:21;16.23;;;9.15;;
25023;SDS011;13033;50.936;5.334;2023-04-03T03:42:47;13.55;;;9.20;;
25023;SDS011;13033;50.936;5.334;2023-04-03T03:45:12;16.42;;;10.20;;
25023;SDS011;13033;50.936;5.334;2023-04-03T03:47:38;14.18;;;9.93;;
25023;SDS011;13033;50.936;5.334;2023-04-03T03:50:05;14.93;;;9.70;;
25023;SDS011;13033;50.936;5.334;2023-04-03T03:52:31;13.43;;;9.75;;
25023;SDS011;13033;50.936;5.334;2023-04-03T03:54:57;14.13;;;10.02;;
25023;SDS011;13033;50.936;5.334;2023-04-03T03:57:22;13.40;;;9.18;;
25023;SDS011;13033;50.936;5.334;2023-04-03T03:59:48;14.35;;;10.07;;
25023;SDS011;13033;50.936;5.334;2023-04-03T04:02:15;16.45;;;9.98;;
25023;SDS011;13033;50.936;5.334;2023-04-03T04:04:41;15.30;;;9.60;;
25023;SDS011;13033;50.936;5.334;2023-04-03T04:07:07;15.73;;;10.10;;
25023;SDS011;13033;50.936;5.334;2023-04-03T04:09:32;13.43;;;9.82;;
25023;SDS011;13033;50.936;5.334;2023-04-03T04:11:58;17.88;;;10.65;;
25023;SDS011;13033;50.936;5.334;2023-04-03T04:14:23;13.38;;;9.80;;
25023;SDS011;13033;50.936;5.334;2023-04-03T04:16:49;16.55;;;10.57;;
25023;SDS011;13033;50.936;5.334;2023-04-03T04:19:15;14.25;;;10.30;;
25023;SDS011;13033;50.936;5.334;2023-04-03T04:21:40;17.42;;;9.63;;
25023;SDS011;13033;50.936;5.334;2023-04-03T04:24:07;15.57;;;9.38;;
25023;SDS011;13033;50.936;5.334;2023-04-03T04:26:33;13.98;;;9.75;;
25023;SDS011;13033;50.936;5.334;2023-04-03T04:28:59;16.63;;;9.93;;
25023;SDS011;13033;50.936;5.334;2023-04-03T04:31:25;14.05;;;9.80;;
25023;SDS011;13033;50.936;5.334;2023-04-03T04:33:51;16.98;;;10.10;;
25023;SDS011;13033;50.936;5.334;2023-04-03T04:36:16;13.45;;;9.65;;
25023;SDS011;13033;50.936;5.334;2023-04-03T04:38:42;14.52;;;10.20;;
25023;SDS011;13033;50.936;5.334;2023-04-03T04:41:08;17.27;;;10.30;;
25023;SDS011;13033;50.936;5.334;2023-04-03T04:43:34;15.88;;;11.02;;
25023;SDS011;13033;50.936;5.334;2023-04-03T04:46:07;14.90;;;10.45;;
25023;SDS011;13033;50.936;5.334;2023-04-03T04:48:34;17.90;;;10.52;;
25023;SDS011;13033;50.936;5.334;2023-04-03T04:51:01;14.63;;;10.30;;
25023;SDS011;13033;50.936;5.334;2023-04-03T04:53:26;14.70;;;11.85;;
25023;SDS011;13033;50.936;5.334;2023-04-03T04:55:52;15.90;;;10.98;;
25023;SDS011;13033;50.936;5.334;2023-04-03T04:58:19;15.93;;;11.15;;
25023;SDS011;13033;50.936;5.334;2023-04-03T05:00:45;19.42;;;11.98;;
25023;SDS011;13033;50.936;5.334;2023-04-03T05:03:11;19.65;;;12.45;;
25023;SDS011;13033;50.936;5.334;2023-04-03T05:05:36;20.77;;;13.77;;
25023;SDS011;13033;50.936;5.334;2023-04-03T05:08:02;17.67;;;13.38;;
25023;SDS011;13033;50.936;5.334;2023-04-03T05:10:28;19.77;;;13.15;;
25023;SDS011;13033;50.936;5.334;2023-04-03T05:12:55;16.17;;;12.55;;
25023;SDS011;13033;50.936;5.334;2023-04-03T05:15:21;23.48;;;13.95;;
25023;SDS011;13033;50.936;5.334;2023-04-03T05:17:47;20.60;;;13.65;;
25023;SDS011;13033;50.936;5.334;2023-04-03T05:20:13;20.20;;;13.93;;
25023;SDS011;13033;50.936;5.334;2023-04-03T05:22:39;19.20;;;13.38;;
25023;SDS011;13033;50.936;5.334;2023-04-03T05:25:05;18.55;;;13.32;;
25023;SDS011;13033;50.936;5.334;2023-04-03T05:27:31;21.95;;;13.75;;
25023;SDS011;13033;50.936;5.334;2023-04-03T05:29:57;19.88;;;13.70;;
25023;SDS011;13033;50.936;5.334;2023-04-03T05:32:23;22.85;;;13.90;;
25023;SDS011;13033;50.936;5.334;2023-04-03T05:34:50;19.80;;;14.00;;
25023;SDS011;13033;50.936;5.334;2023-04-03T05:37:16;20.42;;;14.68;;
25023;SDS011;13033;50.936;5.334;2023-04-03T05:39:42;20.85;;;13.75;;
25023;SDS011;13033;50.936;5.334;2023-04-03T05:42:07;17.83;;;12.85;;
25023;SDS011;13033;50.936;5.334;2023-04-03T05:44:33;18.63;;;13.75;;
25023;SDS011;13033;50.936;5.334;2023-04-03T05:47:00;19.60;;;13.35;;
25023;SDS011;13033;50.936;5.334;2023-04-03T05:49:25;23.55;;;14.77;;
25023;SDS011;13033;50.936;5.334;2023-04-03T05:51:51;28.17;;;14.55;;
25023;SDS011;13033;50.936;5.334;2023-04-03T05:54:50;19.83;;;13.73;;
25023;SDS011;13033;50.936;5.334;2023-04-03T05:57:11;21.15;;;14.40;;
25023;SDS011;13033;50.936;5.334;2023-04-03T05:59:37;20.00;;;12.93;;
25023;SDS011;13033;50.936;5.334;2023-04-03T06:02:02;18.75;;;13.65;;
25023;SDS011;13033;50.936;5.334;2023-04-03T06:04:28;22.40;;;14.05;;
25023;SDS011;13033;50.936;5.334;2023-04-03T06:06:55;18.92;;;13.25;;
25023;SDS011;13033;50.936;5.334;2023-04-03T06:09:23;21.17;;;13.52;;
25023;SDS011;13033;50.936;5.334;2023-04-03T06:11:51;18.77;;;13.98;;
25023;SDS011;13033;50.936;5.334;2023-04-03T06:14:17;19.80;;;12.93;;
25023;SDS011;13033;50.936;5.334;2023-04-03T06:16:43;20.15;;;12.10;;
25023;SDS011;13033;50.936;5.334;2023-04-03T06:19:10;18.80;;;12.50;;
25023;SDS011;13033;50.936;5.334;2023-04-03T06:21:36;17.17;;;11.95;;
25023;SDS011;13033;50.936;5.334;2023-04-03T06:24:03;18.08;;;11.90;;
25023;SDS011;13033;50.936;5.334;2023-04-03T06:26:29;15.80;;;10.70;;
25023;SDS011;13033;50.936;5.334;2023-04-03T06:28:55;19.08;;;11.38;;
25023;SDS011;13033;50.936;5.334;2023-04-03T06:31:21;18.83;;;10.85;;
25023;SDS011;13033;50.936;5.334;2023-04-03T06:33:47;19.08;;;10.80;;
25023;SDS011;13033;50.936;5.334;2023-04-03T06:36:12;22.48;;;10.65;;
25023;SDS011;13033;50.936;5.334;2023-04-03T06:38:38;18.58;;;11.35;;
25023;SDS011;13033;50.936;5.334;2023-04-03T06:41:06;18.33;;;10.20;;
25023;SDS011;13033;50.936;5.334;2023-04-03T06:43:32;14.20;;;8.50;;
25023;SDS011;13033;50.936;5.334;2023-04-03T06:45:57;15.88;;;9.88;;
25023;SDS011;13033;50.936;5.334;2023-04-03T06:48:23;19.58;;;10.85;;
25023;SDS011;13033;50.936;5.334;2023-04-03T06:50:49;18.08;;;10.32;;
25023;SDS011;13033;50.936;5.334;2023-04-03T06:53:15;13.88;;;8.55;;
25023;SDS011;13033;50.936;5.334;2023-04-03T06:55:40;16.33;;;8.45;;
25023;SDS011;13033;50.936;5.334;2023-04-03T06:58:06;13.35;;;7.65;;
25023;SDS011;13033;50.936;5.334;2023-04-03T07:00:32;13.40;;;7.03;;
25023;SDS011;13033;50.936;5.334;2023-04-03T07:02:58;14.48;;;8.18;;
25023;SDS011;13033;50.936;5.334;2023-04-03T07:05:24;13.65;;;7.72;;
25023;SDS011;13033;50.936;5.334;2023-04-03T07:07:50;12.77;;;6.35;;
25023;SDS011;13033;50.936;5.334;2023-04-03T07:10:16;9.25;;;5.53;;
25023;SDS011;13033;50.936;5.334;2023-04-03T07:12:42;9.85;;;6.10;;
25023;SDS011;13033;50.936;5.334;2023-04-03T07:15:08;12.30;;;5.75;;
25023;SDS011;13033;50.936;5.334;2023-04-03T07:17:34;10.57;;;5.85;;
25023;SDS011;13033;50.936;5.334;2023-04-03T07:20:01;11.35;;;5.82;;
25023;SDS011;13033;50.936;5.334;2023-04-03T07:22:28;13.35;;;5.70;;
25023;SDS011;13033;50.936;5.334;2023-04-03T07:24:54;11.13;;;5.47;;
25023;SDS011;13033;50.936;5.334;2023-04-03T07:27:20;8.50;;;5.80;;
25023;SDS011;13033;50.936;5.334;2023-04-03T07:29:46;8.32;;;5.60;;
25023;SDS011;13033;50.936;5.334;2023-04-03T07:32:13;11.32;;;5.88;;
25023;SDS011;13033;50.936;5.334;2023-04-03T07:34:40;10.45;;;5.10;;
25023;SDS011;13033;50.936;5.334;2023-04-03T07:37:06;12.98;;;5.35;;
25023;SDS011;13033;50.936;5.334;2023-04-03T07:39:32;9.93;;;5.50;;
25023;SDS011;13033;50.936;5.334;2023-04-03T07:41:58;11.45;;;5.78;;
25023;SDS011;13033;50.936;5.334;2023-04-03T07:44:24;10.05;;;5.72;;
25023;SDS011;13033;50.936;5.334;2023-04-03T07:46:50;9.18;;;5.32;;
25023;SDS011;13033;50.936;5.334;2023-04-03T07:49:16;13.95;;;5.20;;
25023;SDS011;13033;50.936;5.334;2023-04-03T07:51:43;10.40;;;5.40;;
25023;SDS011;13033;50.936;5.334;2023-04-03T07:54:09;13.70;;;6.18;;
25023;SDS011;13033;50.936;5.334;2023-04-03T07:56:35;9.45;;;4.45;;
25023;SDS011;13033;50.936;5.334;2023-04-03T07:59:01;10.50;;;4.55;;
25023;SDS011;13033;50.936;5.334;2023-04-03T08:01:27;11.57;;;4.35;;
25023;SDS011;13033;50.936;5.334;2023-04-03T08:03:53;8.85;;;3.90;;
25023;SDS011;13033;50.936;5.334;2023-04-03T08:06:19;9.00;;;4.30;;
25023;SDS011;13033;50.936;5.334;2023-04-03T08:08:44;12.98;;;4.32;;
25023;SDS011;13033;50.936;5.334;2023-04-03T08:11:11;8.40;;;4.50;;
25023;SDS011;13033;50.936;5.334;2023-04-03T08:13:36;10.65;;;4.85;;
25023;SDS011;13033;50.936;5.334;2023-04-03T08:16:12;8.73;;;4.53;;
25023;SDS011;13033;50.936;5.334;2023-04-03T08:18:41;10.68;;;3.90;;
25023;SDS011;13033;50.936;5.334;2023-04-03T08:21:10;11.40;;;3.78;;
25023;SDS011;13033;50.936;5.334;2023-04-03T08:23:37;7.97;;;3.70;;
25023;SDS011;13033;50.936;5.334;2023-04-03T08:26:11;10.13;;;3.55;;
25023;SDS011;13033;50.936;5.334;2023-04-03T08:28:38;6.63;;;3.00;;
25023;SDS011;13033;50.936;5.334;2023-04-03T08:31:09;10.80;;;3.83;;
25023;SDS011;13033;50.936;5.334;2023-04-03T08:33:36;12.63;;;3.55;;
25023;SDS011;13033;50.936;5.334;2023-04-03T08:36:03;7.93;;;3.20;;
25023;SDS011;13033;50.936;5.334;2023-04-03T08:38:30;11.50;;;3.38;;
25023;SDS011;13033;50.936;5.334;2023-04-03T08:41:00;7.13;;;3.35;;
25023;SDS011;13033;50.936;5.334;2023-04-03T08:46:37;6.55;;;2.90;;
25023;SDS011;13033;50.936;5.334;2023-04-03T08:49:31;11.23;;;3.20;;
25023;SDS011;13033;50.936;5.334;2023-04-03T08:52:01;8.73;;;3.00;;
25023;SDS011;13033;50.936;5.334;2023-04-03T08:54:41;7.65;;;2.75;;
25023;SDS011;13033;50.936;5.334;2023-04-03T08:57:15;7.78;;;3.15;;
25023;SDS011;13033;50.936;5.334;2023-04-03T08:59:42;9.15;;;2.42;;
25023;SDS011;13033;50.936;5.334;2023-04-03T09:03:10;10.95;;;3.30;;
25023;SDS011;13033;50.936;5.334;2023-04-03T09:05:11;6.57;;;2.65;;
25023;SDS011;13033;50.936;5.334;2023-04-03T09:07:43;5.85;;;2.88;;
25023;SDS011;13033;50.936;5.334;2023-04-03T09:10:19;7.13;;;2.60;;
25023;SDS011;13033;50.936;5.334;2023-04-03T09:12:58;5.63;;;2.60;;
25023;SDS011;13033;50.936;5.334;2023-04-03T09:15:29;8.40;;;2.35;;
25023;SDS011;13033;50.936;5.334;2023-04-03T09:18:00;7.43;;;2.60;;
25023;SDS011;13033;50.936;5.334;2023-04-03T09:22:59;6.93;;;2.50;;
25023;SDS011;13033;50.936;5.334;2023-04-03T09:25:29;8.38;;;2.22;;
25023;SDS011;13033;50.936;5.334;2023-04-03T09:28:00;8.88;;;2.47;;
25023;SDS011;13033;50.936;5.334;2023-04-03T09:30:27;8.32;;;2.72;;
25023;SDS011;13033;50.936;5.334;2023-04-03T09:32:54;7.10;;;2.10;;
25023;SDS011;13033;50.936;5.334;2023-04-03T09:35:23;5.07;;;1.90;;
25023;SDS011;13033;50.936;5.334;2023-04-03T09:37:53;3.75;;;2.10;;
25023;SDS011;13033;50.936;5.334;2023-04-03T09:40:41;3.60;;;1.80;;
25023;SDS011;13033;50.936;5.334;2023-04-03T09:43:28;6.38;;;1.80;;
25023;SDS011;13033;50.936;5.334;2023-04-03T09:45:56;6.13;;;2.28;;
25023;SDS011;13033;50.936;5.334;2023-04-03T09:48:49;7.10;;;2.83;;
25023;SDS011;13033;50.936;5.334;2023-04-03T09:51:16;6.05;;;2.25;;
25023;SDS011;13033;50.936;5.334;2023-04-03T09:53:42;5.03;;;2.03;;
25023;SDS011;13033;50.936;5.334;2023-04-03T09:58:40;7.03;;;2.42;;
25023;SDS011;13033;50.936;5.334;2023-04-03T10:01:35;8.75;;;2.40;;
25023;SDS011;13033;50.936;5.334;2023-04-03T10:06:31;12.00;;;2.55;;
25023;SDS011;13033;50.936;5.334;2023-04-03T10:09:04;8.32;;;2.55;;
25023;SDS011;13033;50.936;5.334;2023-04-03T10:11:47;6.10;;;1.70;;
25023;SDS011;13033;50.936;5.334;2023-04-03T10:14:26;3.92;;;2.00;;
25023;SDS011;13033;50.936;5.334;2023-04-03T10:17:02;5.47;;;2.20;;
25023;SDS011;13033;50.936;5.334;2023-04-03T10:19:32;5.22;;;1.70;;
25023;SDS011;13033;50.936;5.334;2023-04-03T10:22:14;3.53;;;1.40;;
25023;SDS011;13033;50.936;5.334;2023-04-03T10:27:56;2.67;;;1.08;;
25023;SDS011;13033;50.936;5.334;2023-04-03T10:30:33;4.22;;;1.30;;
25023;SDS011;13033;50.936;5.334;2023-04-03T10:36:06;2.55;;;1.33;;
25023;SDS011;13033;50.936;5.334;2023-04-03T10:47:06;4.18;;;1.70;;
25023;SDS011;13033;50.936;5.334;2023-04-03T10:49:50;5.00;;;1.63;;
25023;SDS011;13033;50.936;5.334;2023-04-03T10:57:36;4.65;;;1.17;;
25023;SDS011;13033;50.936;5.334;2023-04-03T11:00:06;3.97;;;1.00;;
25023;SDS011;13033;50.936;5.334;2023-04-03T11:02:53;3.72;;;0.90;;
25023;SDS011;13033;50.936;5.334;2023-04-03T11:05:41;3.70;;;0.95;;
25023;SDS011;13033;50.936;5.334;2023-04-03T11:10:44;4.70;;;1.10;;
25023;SDS011;13033;50.936;5.334;2023-04-03T11:13:16;3.83;;;1.10;;
25023;SDS011;13033;50.936;5.334;2023-04-03T11:15:46;3.90;;;1.20;;
25023;SDS011;13033;50.936;5.334;2023-04-03T11:18:16;2.58;;;0.90;;
25023;SDS011;13033;50.936;5.334;2023-04-03T11:21:00;3.00;;;0.95;;
25023;SDS011;13033;50.936;5.334;2023-04-03T11:23:39;3.33;;;1.10;;
25023;SDS011;13033;50.936;5.334;2023-04-03T11:28:56;1.88;;;0.98;;
25023;SDS011;13033;50.936;5.334;2023-04-03T11:31:29;3.88;;;1.08;;
25023;SDS011;13033;50.936;5.334;2023-04-03T11:34:26;1.52;;;0.90;;
25023;SDS011;13033;50.936;5.334;2023-04-03T11:37:51;4.05;;;1.20;;
25023;SDS011;13033;50.936;5.334;2023-04-03T11:40:36;3.15;;;1.17;;
25023;SDS011;13033;50.936;5.334;2023-04-03T11:50:44;2.58;;;1.30;;
25023;SDS011;13033;50.936;5.334;2023-04-03T11:55:43;4.45;;;1.38;;
25023;SDS011;13033;50.936;5.334;2023-04-03T12:01:00;7.47;;;1.75;;
25023;SDS011;13033;50.936;5.334;2023-04-03T12:03:29;4.10;;;1.13;;
25023;SDS011;13033;50.936;5.334;2023-04-03T12:44:46;3.80;;;1.40;;
25023;SDS011;13033;50.936;5.334;2023-04-03T12:47:27;3.65;;;1.42;;
25023;SDS011;13033;50.936;5.334;2023-04-03T12:49:58;7.10;;;1.70;;
25023;SDS011;13033;50.936;5.334;2023-04-03T12:52:30;6.65;;;1.98;;
25023;SDS011;13033;50.936;5.334;2023-04-03T12:55:00;2.40;;;1.15;;
25023;SDS011;13033;50.936;5.334;2023-04-03T12:57:29;4.90;;;1.50;;
25023;SDS011;13033;50.936;5.334;2023-04-03T12:59:55;4.28;;;1.75;;
25023;SDS011;13033;50.936;5.334;2023-04-03T13:02:26;8.30;;;1.77;;
25023;SDS011;13033;50.936;5.334;2023-04-03T13:04:58;2.53;;;1.55;;
25023;SDS011;13033;50.936;5.334;2023-04-03T13:07:34;6.85;;;2.05;;
25023;SDS011;13033;50.936;5.334;2023-04-03T13:12:33;4.30;;;1.55;;
25023;SDS011;13033;50.936;5.334;2023-04-03T13:15:01;8.07;;;2.05;;
25023;SDS011;13033;50.936;5.334;2023-04-03T13:17:41;3.90;;;1.73;;
25023;SDS011;13033;50.936;5.334;2023-04-03T13:20:16;5.55;;;1.95;;
25023;SDS011;13033;50.936;5.334;2023-04-03T13:22:49;3.45;;;1.80;;
25023;SDS011;13033;50.936;5.334;2023-04-03T13:25:21;3.33;;;1.40;;
25023;SDS011;13033;50.936;5.334;2023-04-03T13:27:49;5.07;;;1.85;;
25023;SDS011;13033;50.936;5.334;2023-04-03T13:35:26;5.75;;;2.10;;
25023;SDS011;13033;50.936;5.334;2023-04-03T13:37:58;6.32;;;1.63;;
25023;SDS011;13033;50.936;5.334;2023-04-03T13:40:26;5.60;;;1.80;;
25023;SDS011;13033;50.936;5.334;2023-04-03T13:42:59;4.72;;;2.03;;
25023;SDS011;13033;50.936;5.334;2023-04-03T13:45:32;3.70;;;1.83;;
25023;SDS011;13033;50.936;5.334;2023-04-03T13:51:19;4.55;;;2.00;;
25023;SDS011;13033;50.936;5.334;2023-04-03T13:53:42;2.90;;;1.65;;
25023;SDS011;13033;50.936;5.334;2023-04-03T14:01:22;4.63;;;2.08;;
25023;SDS011;13033;50.936;5.334;2023-04-03T14:06:19;4.00;;;1.60;;
25023;SDS011;13033;50.936;5.334;2023-04-03T14:08:45;10.75;;;2.60;;
25023;SDS011;13033;50.936;5.334;2023-04-03T14:11:21;5.85;;;1.85;;
25023;SDS011;13033;50.936;5.334;2023-04-03T14:13:52;4.60;;;1.90;;
25023;SDS011;13033;50.936;5.334;2023-04-03T14:16:19;4.22;;;1.70;;
25023;SDS011;13033;50.936;5.334;2023-04-03T14:18:47;5.03;;;2.28;;
25023;SDS011;13033;50.936;5.334;2023-04-03T14:21:15;3.35;;;1.80;;
25023;SDS011;13033;50.936;5.334;2023-04-03T14:23:42;7.85;;;2.33;;
25023;SDS011;13033;50.936;5.334;2023-04-03T14:26:16;4.75;;;2.20;;
25023;SDS011;13033;50.936;5.334;2023-04-03T14:28:44;5.75;;;1.83;;
25023;SDS011;13033;50.936;5.334;2023-04-03T14:31:12;4.78;;;2.03;;
25023;SDS011;13033;50.936;5.334;2023-04-03T14:33:39;4.03;;;1.65;;
25023;SDS011;13033;50.936;5.334;2023-04-03T14:36:22;5.85;;;2.10;;
25023;SDS011;13033;50.936;5.334;2023-04-03T14:38:50;5.05;;;2.30;;
25023;SDS011;13033;50.936;5.334;2023-04-03T14:41:17;5.35;;;2.10;;
25023;SDS011;13033;50.936;5.334;2023-04-03T14:43:46;4.00;;;2.17;;
25023;SDS011;13033;50.936;5.334;2023-04-03T14:46:17;6.35;;;2.40;;
25023;SDS011;13033;50.936;5.334;2023-04-03T14:48:46;4.25;;;1.90;;
25023;SDS011;13033;50.936;5.334;2023-04-03T14:51:13;4.75;;;1.80;;
25023;SDS011;13033;50.936;5.334;2023-04-03T14:53:40;4.97;;;1.90;;
25023;SDS011;13033;50.936;5.334;2023-04-03T14:56:12;3.83;;;1.73;;
25023;SDS011;13033;50.936;5.334;2023-04-03T14:58:42;2.28;;;1.60;;
25023;SDS011;13033;50.936;5.334;2023-04-03T15:01:11;4.85;;;1.95;;
25023;SDS011;13033;50.936;5.334;2023-04-03T15:03:38;5.22;;;1.98;;
25023;SDS011;13033;50.936;5.334;2023-04-03T15:06:05;3.42;;;1.92;;
25023;SDS011;13033;50.936;5.334;2023-04-03T15:08:31;5.20;;;1.80;;
25023;SDS011;13033;50.936;5.334;2023-04-03T15:10:57;8.02;;;1.95;;
25023;SDS011;13033;50.936;5.334;2023-04-03T15:13:23;4.55;;;1.95;;
25023;SDS011;13033;50.936;5.334;2023-04-03T15:15:50;2.65;;;1.63;;
25023;SDS011;13033;50.936;5.334;2023-04-03T15:18:18;5.57;;;2.10;;
25023;SDS011;13033;50.936;5.334;2023-04-03T15:20:47;5.88;;;2.20;;
25023;SDS011;13033;50.936;5.334;2023-04-03T15:23:14;6.25;;;2.10;;
25023;SDS011;13033;50.936;5.334;2023-04-03T15:25:41;5.32;;;2.03;;
25023;SDS011;13033;50.936;5.334;2023-04-03T15:28:31;4.70;;;1.98;;
25023;SDS011;13033;50.936;5.334;2023-04-03T15:31:00;5.10;;;1.83;;
25023;SDS011;13033;50.936;5.334;2023-04-03T15:33:27;3.50;;;1.60;;
25023;SDS011;13033;50.936;5.334;2023-04-03T15:35:52;3.70;;;1.95;;
25023;SDS011;13033;50.936;5.334;2023-04-03T15:38:18;5.32;;;1.70;;
25023;SDS011;13033;50.936;5.334;2023-04-03T15:40:44;7.28;;;1.98;;
25023;SDS011;13033;50.936;5.334;2023-04-03T15:43:12;8.88;;;1.90;;
25023;SDS011;13033;50.936;5.334;2023-04-03T15:45:38;8.40;;;1.90;;
25023;SDS011;13033;50.936;5.334;2023-04-03T15:48:05;3.75;;;1.83;;
25023;SDS011;13033;50.936;5.334;2023-04-03T15:50:32;3.70;;;1.75;;
25023;SDS011;13033;50.936;5.334;2023-04-03T15:52:58;4.82;;;1.98;;
25023;SDS011;13033;50.936;5.334;2023-04-03T15:55:26;3.42;;;1.55;;
25023;SDS011;13033;50.936;5.334;2023-04-03T15:57:53;5.75;;;1.80;;
25023;SDS011;13033;50.936;5.334;2023-04-03T16:00:19;4.03;;;1.70;;
25023;SDS011;13033;50.936;5.334;2023-04-03T16:02:47;3.83;;;1.90;;
25023;SDS011;13033;50.936;5.334;2023-04-03T16:05:15;3.45;;;1.50;;
25023;SDS011;13033;50.936;5.334;2023-04-03T16:07:42;5.22;;;2.10;;
25023;SDS011;13033;50.936;5.334;2023-04-03T16:10:08;3.70;;;1.75;;
25023;SDS011;13033;50.936;5.334;2023-04-03T16:12:35;3.40;;;1.70;;
25023;SDS011;13033;50.936;5.334;2023-04-03T16:15:01;3.97;;;1.60;;
25023;SDS011;13033;50.936;5.334;2023-04-03T16:17:27;5.65;;;1.67;;
25023;SDS011;13033;50.936;5.334;2023-04-03T16:19:53;3.33;;;1.70;;
25023;SDS011;13033;50.936;5.334;2023-04-03T16:22:20;3.55;;;1.83;;
25023;SDS011;13033;50.936;5.334;2023-04-03T16:24:48;3.65;;;1.52;;
25023;SDS011;13033;50.936;5.334;2023-04-03T16:27:14;4.28;;;1.50;;
25023;SDS011;13033;50.936;5.334;2023-04-03T16:29:40;5.38;;;2.08;;
25023;SDS011;13033;50.936;5.334;2023-04-03T16:32:06;6.10;;;2.08;;
25023;SDS011;13033;50.936;5.334;2023-04-03T16:34:32;6.57;;;1.60;;
25023;SDS011;13033;50.936;5.334;2023-04-03T16:36:58;6.25;;;1.70;;
25023;SDS011;13033;50.936;5.334;2023-04-03T16:39:24;3.08;;;1.80;;